Super Servant 4 — PJPO — position and weather

sailwx.info

Track history (hours):
 
Tides and Currents Weather Stations Pressure Air Temp Water Temp Dewpoint Dewpoint Depression Visibility Wind Speed Wind Dir Waves Ship Positions

Super Servant 4

Last reported at 2017-Nov-23 11:00 UTC. Time now 2017-Nov-23 11:01 UTC.
Position N 44°25' E 008°47'.

Length 139 m; beam 32 m.

Type: Cargo ship. MMSI: 306157000.

Date/timePositionNaut miles runAvg speedWind from/ knotsBaromVisibWave heightAir tempDewpointWater temp
2017-Nov-23 11:00N 44°25' E 008°47'0 0.0
2017-Nov-23 10:30N 44°25' E 008°47'0 0.0
2017-Nov-23 10:00N 44°25' E 008°47'0 0.0
2017-Nov-23 09:30N 44°25' E 008°47'0 0.2
2017-Nov-23 09:00N 44°25' E 008°47'1 3.0
2017-Nov-23 08:31N 44°24' E 008°45'3 5.0
2017-Nov-23 08:00N 44°22' E 008°43'5 9.7
2017-Nov-23 07:31N 44°18' E 008°40'612.2
2017-Nov-23 07:01N 44°12' E 008°37'611.6
2017-Nov-23 06:30N 44°07' E 008°34'611.6
2017-Nov-23 06:01N 44°01' E 008°31'611.2
2017-Nov-23 05:30N 43°57' E 008°26'611.7
2017-Nov-23 05:01N 43°53' E 008°21'711.8
2017-Nov-23 04:27N 43°48' E 008°14'4112.3
2017-Nov-23 01:04N 43°19' E 007°33'112.3
2017-Nov-23 01:00N 43°19' E 007°32'712.3
2017-Nov-23 00:26N 43°14' E 007°25'512.5
2017-Nov-23 00:00N 43°10' E 007°20'612.4
2017-Nov-22 23:31N 43°06' E 007°13'612.5
2017-Nov-22 23:00N 43°02' E 007°07'  
2017-Nov-19 12:18N 37°18' W 000°35'512.4
2017-Nov-19 11:54N 37°15' W 000°40'512.2
2017-Nov-19 11:30N 37°12' W 000°45'812.1
2017-Nov-19 10:52N 37°08' W 000°53'21812.2
2017-Nov-18 16:59N 36°01' W 005°12'612.3
2017-Nov-18 16:30N 36°01' W 005°19'510.7
2017-Nov-18 16:00N 36°06' W 005°22'2 4.3
2017-Nov-18 15:25N 36°08' W 005°22'0 0.1
2017-Nov-18 14:49N 36°08' W 005°22'0 0.0
2017-Nov-18 06:19N 36°08' W 005°22'0 0.0
2017-Nov-18 01:07N 36°08' W 005°22'0 0.1
2017-Nov-18 00:52N 36°08' W 005°22'0 0.1
2017-Nov-18 00:28N 36°08' W 005°22'0 0.0
2017-Nov-17 23:58N 36°08' W 005°22'0 0.0
2017-Nov-17 23:25N 36°08' W 005°22'0 0.1
2017-Nov-17 22:55N 36°08' W 005°22'0 0.0
2017-Nov-17 22:22N 36°08' W 005°22'0 0.0
2017-Nov-17 21:58N 36°08' W 005°22'3 0.6
2017-Nov-17 17:20N 36°06' W 005°22'3 9.4
2017-Nov-17 17:00N 36°03' W 005°21'4 7.7
2017-Nov-17 16:30N 35°59' W 005°22'611.6
2017-Nov-17 16:00N 35°57' W 005°29'  
2017-Nov-14 08:13N 29°58' W 023°30'  
Track history (hours):
 
Tides and Currents Weather Stations Pressure Air Temp Water Temp Dewpoint Dewpoint Depression Visibility Wind Speed Wind Dir Waves Ship Positions

Super Servant 4

Last reported at 2017-Nov-23 11:00 UTC. Time now 2017-Nov-23 11:01 UTC.
Position N 44°25' E 008°47'.

Length 139 m; beam 32 m.

Type: Cargo ship. MMSI: 306157000.

Date/timePositionNaut miles runAvg speedWind from/ knotsBaromVisibWave heightAir tempDewpointWater temp
2017-Nov-23 11:00N 44°25' E 008°47'0 0.0
2017-Nov-23 10:30N 44°25' E 008°47'0 0.0
2017-Nov-23 10:00N 44°25' E 008°47'0 0.0
2017-Nov-23 09:30N 44°25' E 008°47'0 0.2
2017-Nov-23 09:00N 44°25' E 008°47'1 3.0
2017-Nov-23 08:31N 44°24' E 008°45'3 5.0
2017-Nov-23 08:00N 44°22' E 008°43'5 9.7
2017-Nov-23 07:31N 44°18' E 008°40'612.2
2017-Nov-23 07:01N 44°12' E 008°37'611.6
2017-Nov-23 06:30N 44°07' E 008°34'611.6
2017-Nov-23 06:01N 44°01' E 008°31'611.2
2017-Nov-23 05:30N 43°57' E 008°26'611.7
2017-Nov-23 05:01N 43°53' E 008°21'711.8
2017-Nov-23 04:27N 43°48' E 008°14'4112.3
2017-Nov-23 01:04N 43°19' E 007°33'112.3
2017-Nov-23 01:00N 43°19' E 007°32'712.3
2017-Nov-23 00:26N 43°14' E 007°25'512.5
2017-Nov-23 00:00N 43°10' E 007°20'612.4
2017-Nov-22 23:31N 43°06' E 007°13'612.5
2017-Nov-22 23:00N 43°02' E 007°07'  
2017-Nov-19 12:18N 37°18' W 000°35'512.4
2017-Nov-19 11:54N 37°15' W 000°40'512.2
2017-Nov-19 11:30N 37°12' W 000°45'812.1
2017-Nov-19 10:52N 37°08' W 000°53'21812.2
2017-Nov-18 16:59N 36°01' W 005°12'612.3
2017-Nov-18 16:30N 36°01' W 005°19'510.7
2017-Nov-18 16:00N 36°06' W 005°22'2 4.3
2017-Nov-18 15:25N 36°08' W 005°22'0 0.1
2017-Nov-18 14:49N 36°08' W 005°22'0 0.0
2017-Nov-18 06:19N 36°08' W 005°22'0 0.0
2017-Nov-18 01:07N 36°08' W 005°22'0 0.1
2017-Nov-18 00:52N 36°08' W 005°22'0 0.1
2017-Nov-18 00:28N 36°08' W 005°22'0 0.0
2017-Nov-17 23:58N 36°08' W 005°22'0 0.0
2017-Nov-17 23:25N 36°08' W 005°22'0 0.1
2017-Nov-17 22:55N 36°08' W 005°22'0 0.0
2017-Nov-17 22:22N 36°08' W 005°22'0 0.0
2017-Nov-17 21:58N 36°08' W 005°22'3 0.6
2017-Nov-17 17:20N 36°06' W 005°22'3 9.4
2017-Nov-17 17:00N 36°03' W 005°21'4 7.7
2017-Nov-17 16:30N 35°59' W 005°22'611.6
2017-Nov-17 16:00N 35°57' W 005°29'  
2017-Nov-14 08:13N 29°58' W 023°30'  

Dump ship's entire track history